createdAt,value
2023-01-07T00:01:45.762Z,322.02
2023-01-07T00:04:16.856Z,317.57
2023-01-07T00:06:48.371Z,313.70
2023-01-07T00:09:18.107Z,337.25
2023-01-07T00:11:47.756Z,328.02
2023-01-07T00:14:17.341Z,330.15
2023-01-07T00:16:46.398Z,365.98
2023-01-07T00:19:17.165Z,360.33
2023-01-07T00:21:46.271Z,370.88
2023-01-07T00:24:18.145Z,334.38
2023-01-07T00:26:47.503Z,369.73
2023-01-07T00:29:18.080Z,357.05
2023-01-07T00:31:47.287Z,372.83
2023-01-07T00:34:17.097Z,353.95
2023-01-07T00:36:48.348Z,347.77
2023-01-07T00:39:22.468Z,340.80
2023-01-07T00:42:09.857Z,357.27
2023-01-07T00:44:39.139Z,332.67
2023-01-07T00:47:08.451Z,360.55
2023-01-07T00:49:37.627Z,372.75
2023-01-07T00:52:06.848Z,347.42
2023-01-07T00:54:36.346Z,376.33
2023-01-07T00:57:05.330Z,361.80
2023-01-07T00:59:35.068Z,341.05
2023-01-07T01:02:05.840Z,324.80
2023-01-07T01:04:37.476Z,331.75
2023-01-07T01:07:10.657Z,314.25
2023-01-07T01:09:41.109Z,308.02
2023-01-07T01:12:11.377Z,309.88
2023-01-07T01:14:41.709Z,334.48
2023-01-07T01:17:11.642Z,316.83
2023-01-07T01:19:41.455Z,370.60
2023-01-07T01:22:11.872Z,356.80
2023-01-07T01:24:42.142Z,330.30
2023-01-07T01:27:12.365Z,338.05
2023-01-07T01:29:42.583Z,376.27
2023-01-07T01:32:14.315Z,344.80
2023-01-07T01:34:46.111Z,338.40
2023-01-07T01:37:16.349Z,341.05
2023-01-07T01:39:45.971Z,321.30
2023-01-07T01:42:23.033Z,323.83
2023-01-07T01:45:01.932Z,345.27
2023-01-07T01:48:14.059Z,337.13
2023-01-07T01:50:50.014Z,365.50
2023-01-07T01:53:38.679Z,378.50
2023-01-07T01:56:17.892Z,343.88
2023-01-07T01:58:54.929Z,360.88
2023-01-07T02:01:25.499Z,383.15
2023-01-07T02:03:56.216Z,350.20
2023-01-07T02:06:34.365Z,366.67
2023-01-07T02:09:04.161Z,353.40
2023-01-07T02:11:44.133Z,335.85
2023-01-07T02:14:55.039Z,326.33
2023-01-07T02:17:50.688Z,303.92
2023-01-07T02:20:36.227Z,306.90
2023-01-07T02:23:33.154Z,300.55
2023-01-07T02:26:29.570Z,320.83
2023-01-07T02:29:05.507Z,302.08
2023-01-07T02:31:47.927Z,325.70
2023-01-07T02:34:31.008Z,366.42
2023-01-07T02:37:08.786Z,301.42
2023-01-07T02:39:56.996Z,295.42
2023-01-07T02:42:38.802Z,274.55
2023-01-07T02:45:40.201Z,276.07
2023-01-07T02:48:14.775Z,275.10
2023-01-07T02:50:44.285Z,292.77
2023-01-07T02:53:19.077Z,270.80
2023-01-07T02:56:00.094Z,285.98
2023-01-07T02:58:50.129Z,293.02
2023-01-07T03:01:48.583Z,304.63
2023-01-07T03:04:40.126Z,285.42
2023-01-07T03:07:37.605Z,303.58
2023-01-07T03:10:39.689Z,245.10
2023-01-07T03:13:26.417Z,297.10
2023-01-07T03:16:05.647Z,299.55
2023-01-07T03:18:45.072Z,283.55
2023-01-07T03:21:18.180Z,296.60
2023-01-07T03:23:56.923Z,314.45
2023-01-07T03:26:32.161Z,305.10
2023-01-07T03:29:04.584Z,301.13
2023-01-07T03:31:38.353Z,310.40
2023-01-07T03:34:14.179Z,320.02
2023-01-07T03:36:50.577Z,312.98
2023-01-07T03:39:22.116Z,289.27
2023-01-07T03:42:25.174Z,314.42
2023-01-07T03:44:54.860Z,315.47
2023-01-07T03:47:29.041Z,305.73
2023-01-07T03:49:58.713Z,353.75
2023-01-07T03:52:29.047Z,337.92
2023-01-07T03:54:58.980Z,325.10
2023-01-07T03:57:30.525Z,330.17
2023-01-07T04:00:03.119Z,328.85
2023-01-07T04:02:33.073Z,309.92
2023-01-07T04:05:02.545Z,324.83
2023-01-07T04:07:32.261Z,303.40
2023-01-07T04:10:02.434Z,334.98
2023-01-07T04:12:32.369Z,307.83
2023-01-07T04:15:02.100Z,327.70
2023-01-07T04:17:33.283Z,298.58
2023-01-07T04:20:03.186Z,292.08
2023-01-07T04:22:33.551Z,277.30
2023-01-07T04:25:03.677Z,301.27
2023-01-07T04:27:34.667Z,284.67
2023-01-07T04:30:05.630Z,284.73
2023-01-07T04:32:36.752Z,298.73
2023-01-07T04:35:07.267Z,292.80
2023-01-07T04:37:37.450Z,312.55
2023-01-07T04:40:07.925Z,279.55
2023-01-07T04:42:39.104Z,292.08
2023-01-07T04:45:11.073Z,273.50
2023-01-07T04:47:41.151Z,290.05
2023-01-07T04:50:11.394Z,297.58
2023-01-07T04:52:41.991Z,277.00
2023-01-07T04:55:12.652Z,286.67
2023-01-07T04:57:42.564Z,297.45
2023-01-07T05:00:15.012Z,278.63
2023-01-07T05:02:47.676Z,289.83
2023-01-07T05:05:18.761Z,315.50
2023-01-07T05:07:48.513Z,296.08
2023-01-07T05:10:22.086Z,297.15
2023-01-07T05:12:55.474Z,285.00
2023-01-07T05:15:27.011Z,292.85
2023-01-07T05:17:57.679Z,281.25
2023-01-07T05:20:28.538Z,295.52
2023-01-07T05:22:58.830Z,314.83
2023-01-07T05:25:29.013Z,300.50
2023-01-07T05:27:59.598Z,269.38
2023-01-07T05:30:31.342Z,292.33
2023-01-07T05:33:01.292Z,314.65
2023-01-07T05:35:31.448Z,293.27
2023-01-07T05:38:02.147Z,313.50
2023-01-07T05:40:32.596Z,343.42
2023-01-07T05:43:02.922Z,290.13
2023-01-07T05:45:32.684Z,288.85
2023-01-07T05:48:02.643Z,285.20
2023-01-07T05:50:32.575Z,283.45
2023-01-07T05:53:02.306Z,294.63
2023-01-07T05:55:32.270Z,304.65
2023-01-07T05:58:02.019Z,284.02
2023-01-07T06:00:31.931Z,291.00
2023-01-07T06:03:01.928Z,271.85
2023-01-07T06:05:32.311Z,281.40
2023-01-07T06:08:01.812Z,287.88
2023-01-07T06:10:31.849Z,274.02
2023-01-07T06:13:01.270Z,291.98
2023-01-07T06:15:31.469Z,306.30
2023-01-07T06:18:02.332Z,330.25
2023-01-07T06:20:35.829Z,321.83
2023-01-07T06:23:06.183Z,302.10
2023-01-07T06:25:35.991Z,318.63
2023-01-07T06:28:05.977Z,320.92
2023-01-07T06:30:35.198Z,308.98
2023-01-07T06:33:06.805Z,308.13
2023-01-07T06:35:36.279Z,316.02
2023-01-07T06:38:06.809Z,295.95
2023-01-07T06:40:36.983Z,300.70
2023-01-07T06:43:07.841Z,278.35
2023-01-07T06:45:37.855Z,278.98
2023-01-07T06:48:08.844Z,271.38
2023-01-07T06:50:38.603Z,264.80
2023-01-07T06:53:08.301Z,259.27
2023-01-07T06:55:38.093Z,305.55
2023-01-07T06:58:07.688Z,259.95
2023-01-07T07:00:37.085Z,277.38
2023-01-07T07:03:06.505Z,263.55
2023-01-07T07:05:36.642Z,281.98
2023-01-07T07:08:08.468Z,281.65
2023-01-07T07:10:37.726Z,281.60
2023-01-07T07:13:06.993Z,289.30
2023-01-07T07:15:36.169Z,323.25
2023-01-07T07:18:05.202Z,278.45
2023-01-07T07:20:34.891Z,296.45
2023-01-07T07:23:04.298Z,324.35
2023-01-07T07:25:36.383Z,294.02
2023-01-07T07:28:05.899Z,328.98
2023-01-07T07:30:47.234Z,322.05
2023-01-07T07:33:20.087Z,301.13
2023-01-07T07:35:49.691Z,316.33
2023-01-07T07:38:20.121Z,339.05
2023-01-07T07:40:49.733Z,315.52
2023-01-07T07:43:18.818Z,349.95
2023-01-07T07:45:48.311Z,345.10
2023-01-07T07:48:20.237Z,325.92
2023-01-07T07:51:00.007Z,349.08
2023-01-07T07:53:30.587Z,344.23
2023-01-07T07:56:00.439Z,378.80
2023-01-07T07:58:30.926Z,370.55
2023-01-07T08:01:00.031Z,371.55
2023-01-07T08:03:33.282Z,379.85
2023-01-07T08:06:04.776Z,370.20
2023-01-07T08:08:34.812Z,391.87
2023-01-07T08:11:04.918Z,363.30
2023-01-07T08:13:34.225Z,387.23
2023-01-07T08:16:03.439Z,391.75
2023-01-07T08:18:32.679Z,410.08
2023-01-07T08:21:02.129Z,401.65
2023-01-07T08:23:32.239Z,423.90
2023-01-07T08:26:04.255Z,409.83
2023-01-07T08:28:34.922Z,402.55
2023-01-07T08:31:05.647Z,438.88
2023-01-07T08:33:38.367Z,408.83
2023-01-07T08:36:22.000Z,400.63
2023-01-07T08:38:53.970Z,438.02
2023-01-07T08:41:24.351Z,426.25
2023-01-07T08:43:55.196Z,470.63
2023-01-07T08:46:24.482Z,434.60
2023-01-07T08:48:53.536Z,440.08
2023-01-07T08:51:22.933Z,445.55
2023-01-07T08:53:52.024Z,472.40
2023-01-07T08:56:22.120Z,490.20
2023-01-07T08:58:51.254Z,486.45
2023-01-07T09:01:24.854Z,506.90
2023-01-07T09:03:54.121Z,513.05
2023-01-07T09:06:24.461Z,501.20
2023-01-07T09:08:53.450Z,506.02
2023-01-07T09:11:22.744Z,495.25
2023-01-07T09:13:54.130Z,504.25
2023-01-07T09:16:23.484Z,505.77
2023-01-07T09:18:55.041Z,502.95
2023-01-07T09:21:24.245Z,495.00
2023-01-07T09:23:53.287Z,522.00
2023-01-07T09:26:22.222Z,544.92
2023-01-07T09:28:51.410Z,538.47
2023-01-07T09:31:20.768Z,490.98
2023-01-07T09:33:50.421Z,549.50
2023-01-07T09:36:19.390Z,568.38
2023-01-07T09:38:48.801Z,503.45
2023-01-07T09:41:35.102Z,518.58
2023-01-07T09:44:14.092Z,512.78
2023-01-07T09:46:45.110Z,484.63
2023-01-07T09:49:19.621Z,551.30
2023-01-07T09:52:00.208Z,525.13
2023-01-07T09:54:38.374Z,507.55
2023-01-07T09:57:08.451Z,483.38
2023-01-07T09:59:38.096Z,495.80
2023-01-07T10:02:25.788Z,622.03
2023-01-07T10:05:10.016Z,457.75
2023-01-07T10:07:47.393Z,476.27
2023-01-07T10:10:35.715Z,495.42
2023-01-07T10:13:20.417Z,449.15
2023-01-07T10:16:03.933Z,483.67
2023-01-07T10:19:00.092Z,511.85
2023-01-07T10:21:53.423Z,492.10
2023-01-07T10:24:40.887Z,478.55
2023-01-07T10:27:14.816Z,448.65
2023-01-07T10:29:57.861Z,476.63
2023-01-07T10:32:37.757Z,460.85
2023-01-07T10:35:15.966Z,489.85
2023-01-07T10:37:45.404Z,522.65
2023-01-07T10:40:26.611Z,521.17
2023-01-07T10:42:58.538Z,521.65
2023-01-07T10:46:14.795Z,486.75
2023-01-07T10:49:02.480Z,470.63
2023-01-07T10:51:58.868Z,468.88
2023-01-07T10:54:51.108Z,468.38
2023-01-07T10:57:27.565Z,470.33
2023-01-07T11:00:03.892Z,454.77
2023-01-07T11:02:33.320Z,457.77
2023-01-07T11:05:02.686Z,470.05
2023-01-07T11:07:52.804Z,458.10
2023-01-07T11:10:30.250Z,440.75
2023-01-07T11:13:13.946Z,454.15
2023-01-07T11:15:58.869Z,443.20
2023-01-07T11:18:52.874Z,448.48
2023-01-07T11:21:44.728Z,419.52
2023-01-07T11:24:26.156Z,463.08
2023-01-07T11:27:21.484Z,426.48
2023-01-07T11:30:20.244Z,429.92
2023-01-07T11:33:04.155Z,428.45
2023-01-07T11:35:33.868Z,420.02
2023-01-07T11:38:03.076Z,435.40
2023-01-07T11:40:34.342Z,419.10
2023-01-07T11:43:21.977Z,463.05
2023-01-07T11:46:20.128Z,486.25
2023-01-07T11:49:03.674Z,429.58
2023-01-07T11:51:41.862Z,401.15
2023-01-07T11:54:22.688Z,437.52
2023-01-07T11:56:54.841Z,428.58
2023-01-07T11:59:29.219Z,438.63
2023-01-07T12:02:00.705Z,411.38
2023-01-07T12:04:38.129Z,407.02
2023-01-07T12:07:16.663Z,404.00
2023-01-07T12:09:47.452Z,428.70
2023-01-07T12:12:40.494Z,414.67
2023-01-07T12:15:28.540Z,409.02
2023-01-07T12:18:30.381Z,428.40
2023-01-07T12:21:14.700Z,407.13
2023-01-07T12:24:04.927Z,386.33
2023-01-07T12:26:53.692Z,391.27
2023-01-07T12:29:41.295Z,434.48
2023-01-07T12:32:27.299Z,429.77
2023-01-07T12:35:26.935Z,454.00
2023-01-07T12:38:09.606Z,400.33
2023-01-07T12:40:44.869Z,408.48
2023-01-07T12:43:22.457Z,427.58
2023-01-07T12:46:02.580Z,425.90
2023-01-07T12:48:32.149Z,447.30
2023-01-07T12:51:06.151Z,434.83
2023-01-07T12:53:43.616Z,433.70
2023-01-07T12:56:39.172Z,466.50
2023-01-07T12:59:46.120Z,467.13
2023-01-07T13:02:40.813Z,444.77
2023-01-07T13:05:17.371Z,404.00
2023-01-07T13:08:28.912Z,401.58
2023-01-07T13:11:47.226Z,401.65
2023-01-07T13:14:30.645Z,409.48
2023-01-07T13:17:30.372Z,446.83
2023-01-07T13:20:00.424Z,419.02
2023-01-07T13:22:42.406Z,423.90
2023-01-07T13:25:40.088Z,420.50
2023-01-07T13:28:32.351Z,446.23
2023-01-07T13:31:01.799Z,442.50
2023-01-07T13:33:56.416Z,424.10
2023-01-07T13:36:52.212Z,424.83
2023-01-07T13:39:32.722Z,396.38
2023-01-07T13:42:17.093Z,375.67
2023-01-07T13:45:25.995Z,402.00
2023-01-07T13:47:59.826Z,388.60
2023-01-07T13:50:43.360Z,400.88
2023-01-07T13:53:18.374Z,412.92
2023-01-07T13:55:49.700Z,388.02
2023-01-07T13:58:34.315Z,389.80
2023-01-07T14:01:06.702Z,395.73
2023-01-07T14:03:42.731Z,375.33
2023-01-07T14:06:24.960Z,417.92
2023-01-07T14:09:09.380Z,421.95
2023-01-07T14:11:49.165Z,422.70
2023-01-07T14:14:53.416Z,403.42
2023-01-07T14:17:29.613Z,405.88
2023-01-07T14:20:23.218Z,400.98
2023-01-07T14:22:59.807Z,399.92
2023-01-07T14:26:14.784Z,387.88
2023-01-07T14:28:58.915Z,408.70
2023-01-07T14:31:31.115Z,410.95
2023-01-07T14:34:09.668Z,394.48
2023-01-07T14:37:03.313Z,369.40
2023-01-07T14:39:41.197Z,359.08
2023-01-07T14:42:22.538Z,377.42
2023-01-07T14:44:52.951Z,368.15
2023-01-07T14:47:46.743Z,359.55
2023-01-07T14:50:25.915Z,384.90
2023-01-07T14:53:39.547Z,366.23
2023-01-07T14:56:18.421Z,372.27
2023-01-07T14:59:16.614Z,364.10
2023-01-07T15:02:09.072Z,386.75
2023-01-07T15:05:03.701Z,383.67
2023-01-07T15:07:38.621Z,417.30
2023-01-07T15:10:41.743Z,436.67
2023-01-07T15:13:37.446Z,411.30
2023-01-07T15:16:12.700Z,430.83
2023-01-07T15:18:56.504Z,387.10
2023-01-07T15:21:41.108Z,405.35
2023-01-07T15:24:24.003Z,407.15
2023-01-07T15:27:51.817Z,388.65
2023-01-07T15:30:32.241Z,400.60
2023-01-07T15:33:32.838Z,411.25
2023-01-07T15:36:06.760Z,414.05
2023-01-07T15:38:51.539Z,420.02
2023-01-07T15:41:55.177Z,418.10
2023-01-07T15:44:29.441Z,432.00
2023-01-07T15:46:58.971Z,416.92
2023-01-07T15:49:30.913Z,420.20
2023-01-07T15:52:03.709Z,412.40
2023-01-07T15:54:39.348Z,436.77
2023-01-07T15:57:30.028Z,410.67
2023-01-07T16:00:01.220Z,426.35
2023-01-07T16:02:39.926Z,414.02
2023-01-07T16:05:11.093Z,411.85
2023-01-07T16:08:01.805Z,407.33
2023-01-07T16:10:34.838Z,411.10
2023-01-07T16:13:19.341Z,414.92
2023-01-07T16:15:54.665Z,419.83
2023-01-07T16:18:24.224Z,407.65
2023-01-07T16:21:02.606Z,449.83
2023-01-07T16:23:38.370Z,430.58
2023-01-07T16:26:17.688Z,431.25
2023-01-07T16:29:00.962Z,412.08
2023-01-07T16:31:32.509Z,422.83
2023-01-07T16:34:04.383Z,422.27
2023-01-07T16:36:38.150Z,450.70
2023-01-07T16:39:19.904Z,439.98
2023-01-07T16:41:50.565Z,435.67
2023-01-07T16:44:41.627Z,398.15
2023-01-07T16:47:19.759Z,451.88
2023-01-07T16:49:51.419Z,427.45
2023-01-07T16:52:23.028Z,450.98
2023-01-07T16:54:52.552Z,461.63
2023-01-07T16:57:43.674Z,426.40
2023-01-07T17:00:21.922Z,450.30
2023-01-07T17:03:01.000Z,455.55
2023-01-07T17:05:35.241Z,479.42
2023-01-07T17:08:08.488Z,472.00
2023-01-07T17:10:44.315Z,473.42
2023-01-07T17:13:16.807Z,462.30
2023-01-07T17:15:48.471Z,465.58
2023-01-07T17:18:18.393Z,481.00
2023-01-07T17:21:05.102Z,448.92
2023-01-07T17:23:42.478Z,452.45
2023-01-07T17:26:23.796Z,443.80
2023-01-07T17:29:03.200Z,462.02
2023-01-07T17:31:33.868Z,458.67
2023-01-07T17:34:04.644Z,456.88
2023-01-07T17:36:34.216Z,439.25
2023-01-07T17:39:07.651Z,458.67
2023-01-07T17:41:57.225Z,432.20
2023-01-07T17:44:26.620Z,452.13
2023-01-07T17:46:55.938Z,434.40
2023-01-07T17:49:25.567Z,445.08
2023-01-07T17:51:55.347Z,437.48
2023-01-07T17:54:27.392Z,400.52
2023-01-07T17:56:58.477Z,375.88
2023-01-07T17:59:31.264Z,375.40
2023-01-07T18:02:01.718Z,351.88
2023-01-07T18:04:32.024Z,334.40
2023-01-07T18:07:02.057Z,329.98
2023-01-07T18:09:30.941Z,352.70
2023-01-07T18:12:18.645Z,346.50
2023-01-07T18:14:48.122Z,372.88
2023-01-07T18:17:18.508Z,353.33
2023-01-07T18:19:51.049Z,356.48
2023-01-07T18:22:21.533Z,396.90
2023-01-07T18:24:51.580Z,400.35
2023-01-07T18:27:21.214Z,386.35
2023-01-07T18:29:50.463Z,385.25
2023-01-07T18:32:20.345Z,367.45
2023-01-07T18:34:49.399Z,355.70
2023-01-07T18:37:19.128Z,344.65
2023-01-07T18:39:48.562Z,343.20
2023-01-07T18:42:18.061Z,343.02
2023-01-07T18:44:47.099Z,327.05
2023-01-07T18:47:16.472Z,328.98
2023-01-07T18:49:45.658Z,299.70
2023-01-07T18:52:14.730Z,333.95
2023-01-07T18:54:44.384Z,331.30
2023-01-07T18:57:15.411Z,343.38
2023-01-07T18:59:44.743Z,282.00
2023-01-07T19:02:21.184Z,274.75
2023-01-07T19:04:50.774Z,287.92
2023-01-07T19:07:20.779Z,286.30
2023-01-07T19:09:50.273Z,300.98
2023-01-07T19:12:19.440Z,325.10
2023-01-07T19:14:48.293Z,294.20
2023-01-07T19:17:17.532Z,354.30
2023-01-07T19:19:48.763Z,334.65
2023-01-07T19:22:18.289Z,343.35
2023-01-07T19:24:47.283Z,356.83
2023-01-07T19:27:16.601Z,398.08
2023-01-07T19:29:45.591Z,378.63
2023-01-07T19:32:14.826Z,374.15
2023-01-07T19:34:44.280Z,372.98
2023-01-07T19:37:13.429Z,354.13
2023-01-07T19:39:42.908Z,331.92
2023-01-07T19:42:13.584Z,326.70
2023-01-07T19:44:43.066Z,315.73
2023-01-07T19:47:12.214Z,291.33
2023-01-07T19:49:41.381Z,317.23
2023-01-07T19:52:10.693Z,319.73
2023-01-07T19:54:40.061Z,313.02
2023-01-07T19:57:09.722Z,303.90
2023-01-07T19:59:38.940Z,294.13
2023-01-07T20:02:08.514Z,298.40
2023-01-07T20:04:37.832Z,287.27
2023-01-07T20:07:07.310Z,262.75
2023-01-07T20:09:36.636Z,272.95
2023-01-07T20:12:06.374Z,296.92
2023-01-07T20:14:35.813Z,292.83
2023-01-07T20:17:05.156Z,297.25
2023-01-07T20:19:34.501Z,303.15
2023-01-07T20:22:03.862Z,310.92
2023-01-07T20:24:33.865Z,288.33
2023-01-07T20:27:03.325Z,333.35
2023-01-07T20:29:32.577Z,326.77
2023-01-07T20:32:02.031Z,300.70
2023-01-07T20:34:31.353Z,320.77
2023-01-07T20:37:00.739Z,327.25
2023-01-07T20:39:29.853Z,358.88
2023-01-07T20:41:59.102Z,347.63
2023-01-07T20:44:28.433Z,322.83
2023-01-07T20:46:57.637Z,302.48
2023-01-07T20:49:26.683Z,315.77
2023-01-07T20:51:55.945Z,302.40
2023-01-07T20:54:25.218Z,311.17
2023-01-07T20:56:54.661Z,361.38
2023-01-07T20:59:24.393Z,370.38
2023-01-07T21:01:53.587Z,333.65
2023-01-07T21:04:22.879Z,325.92
2023-01-07T21:06:52.139Z,337.35
2023-01-07T21:09:21.197Z,364.38
2023-01-07T21:11:50.335Z,333.45
2023-01-07T21:14:19.836Z,348.35
2023-01-07T21:16:49.398Z,371.48
2023-01-07T21:19:18.516Z,389.38
2023-01-07T21:21:49.628Z,410.77
2023-01-07T21:24:18.999Z,389.60
2023-01-07T21:26:49.437Z,416.45
2023-01-07T21:29:18.525Z,428.73
2023-01-07T21:31:47.768Z,383.17
2023-01-07T21:34:16.858Z,399.67
2023-01-07T21:36:46.091Z,418.45
2023-01-07T21:39:15.543Z,412.70
2023-01-07T21:41:44.839Z,406.05
2023-01-07T21:44:14.486Z,394.02
2023-01-07T21:46:43.846Z,387.48
2023-01-07T21:49:12.686Z,412.77
2023-01-07T21:51:42.145Z,394.08
2023-01-07T21:54:11.375Z,386.30
2023-01-07T21:56:40.712Z,400.23
2023-01-07T21:59:10.937Z,383.30
2023-01-07T22:01:40.465Z,430.10
2023-01-07T22:04:09.721Z,414.50
2023-01-07T22:06:39.388Z,403.60
2023-01-07T22:09:12.956Z,372.58
2023-01-07T22:11:43.435Z,386.73
2023-01-07T22:14:18.877Z,384.02
2023-01-07T22:16:49.242Z,378.65
2023-01-07T22:19:18.745Z,384.15
2023-01-07T22:21:47.822Z,331.58
2023-01-07T22:24:16.986Z,355.50
2023-01-07T22:26:46.622Z,371.90
2023-01-07T22:29:16.271Z,367.80
2023-01-07T22:31:49.218Z,399.23
2023-01-07T22:34:18.459Z,426.77
2023-01-07T22:37:00.440Z,429.50
2023-01-07T22:39:58.871Z,384.33
2023-01-07T22:42:35.720Z,437.80
2023-01-07T22:45:12.309Z,439.38
2023-01-07T22:47:46.280Z,475.00
2023-01-07T22:50:16.325Z,475.65
2023-01-07T22:52:46.481Z,452.15
2023-01-07T22:55:15.974Z,421.05
2023-01-07T22:57:44.821Z,448.60
2023-01-07T23:00:40.901Z,480.60
2023-01-07T23:03:10.125Z,508.27
2023-01-07T23:05:41.019Z,517.47
2023-01-07T23:08:11.055Z,525.20
2023-01-07T23:10:41.563Z,521.58
2023-01-07T23:13:12.097Z,512.63
2023-01-07T23:15:41.644Z,495.90
2023-01-07T23:18:12.557Z,502.38
2023-01-07T23:20:44.405Z,494.67
2023-01-07T23:23:14.391Z,499.58
2023-01-07T23:25:48.452Z,518.30
2023-01-07T23:28:18.795Z,523.53
2023-01-07T23:30:49.286Z,473.50
2023-01-07T23:33:18.594Z,487.85
2023-01-07T23:35:47.599Z,479.95
2023-01-07T23:38:17.320Z,467.42
2023-01-07T23:40:46.963Z,476.73
2023-01-07T23:43:16.117Z,468.27
2023-01-07T23:45:47.629Z,450.50
2023-01-07T23:48:16.566Z,427.75
2023-01-07T23:50:45.905Z,438.83
2023-01-07T23:53:15.064Z,365.33
2023-01-07T23:55:55.975Z,355.10
2023-01-07T23:58:26.447Z,361.77
